Weersoverzicht van METAR-stations binnen 150 km

EHRD - Rotterdam Airport
Afstand tot weerstation: ZO 28 km
Update: 05-08-2020 20:55
Helder
Helder
 Wind van WNW
Wind: WNW 6 km/h
Temperatuur: 21°C
Dauwpunt: 13°C
Luchtvochtigheid: 60%
Luchtdruk: 1014 hPa
Bewolking: Helder
Zicht: 10 km
2020/08/05 18:55 EHRD 051855Z AUTO 30003KT 270V330 9999 NCD 21/13 Q1014 NOSIG
EHSC - Goeree Le Sea (Platform ter hoogte van Zeeland)
Afstand tot weerstation: WZW 36 km
Update: 05-08-2020 20:55

 Wind van ZW
Wind: ZW 13 km/h
Temperatuur: 21°C
Dauwpunt: 15°C
Luchtvochtigheid: 69%
Luchtdruk: 1014 hPa
Zicht: 10 km
2020/08/05 18:55 EHSC 051855Z AUTO 23007KT 9999 ///////// 21/15 Q1014 W19/H4
 
EHAM - A'dam Schiphol
Afstand tot weerstation: ONO 51 km
Update: 05-08-2020 20:55
Helder
Helder
 Wind van WNW
Wind: WNW 11 km/h
Temperatuur: 21°C
Dauwpunt: 11°C
Luchtvochtigheid: 53%
Luchtdruk: 1014 hPa
Overzicht: Helder
Zicht: Meer dan 10 km
2020/08/05 18:55 EHAM 051855Z 30006KT CAVOK 21/11 Q1014 NOSIG
EHSA - Euro Platform (Ter hoogte van Zeeland)
Afstand tot weerstation: W 58 km
Update: 05-08-2020 20:55

 Wind van ZZO
Wind: ZZO 26 km/h
Temperatuur: 20°C
Dauwpunt: 13°C
Luchtvochtigheid: 64%
Luchtdruk: 1014 hPa
Zicht: 10 km
2020/08/05 18:55 EHSA 051855Z AUTO 15014KT 9999 ///////// 20/13 Q1014 W17/H5
 
EHPG - P11-B Sea (Platform ter hoogte van Zuid Holland)
Afstand tot weerstation: NW 60 km
Update: 05-08-2020 20:55
Gedeeltelijk bewolkt
Gedeeltelijk bewolkt
 Wind van Z
Wind: Z 33 km/h
Temperatuur: 20°C
Dauwpunt: 12°C
Luchtvochtigheid: 60%
Luchtdruk: 1013 hPa
Bewolking: Gedeeltelijk bewolkt
Zicht: 10 km
2020/08/05 18:55 EHPG 051855Z AUTO 19018KT 9999 NSC 20/12 Q1013
EHWO - Vliegveld Woensdrecht
Afstand tot weerstation: ZZO 65 km
Update: 05-08-2020 21:25
Overwegend bewolkt
Overwegend bewolkt
 Wind van NW
Wind: NW 7 km/h
Temperatuur: 22°C
Dauwpunt: 12°C
Luchtvochtigheid: 53%
Luchtdruk: 1015 hPa
Bewolking: Overwegend bewolkt
Zicht: 10 km
Details Bewolking: Overwegend bewolkt 5486 m
2020/08/05 19:25 EHWO 051925Z AUTO 32004KT 300V360 9999 BKN180 22/12 Q1015 BLU
 
EHGR - Vliegveld Gilze-Rijen
Afstand tot weerstation: ZO 79 km
Update: 05-08-2020 20:55
Helder
Helder
 Wind van ZZW
Wind: ZZW 6 km/h
Temperatuur: 26°C
Dauwpunt: 10°C
Luchtvochtigheid: 37%
Luchtdruk: 1014 hPa
Bewolking: Helder
Zicht: 10 km
2020/08/05 18:55 EHGR 051855Z AUTO 20003KT 160V230 9999 NCD 26/10 Q1014 BLU
EHQE - Hoorn-A Sea (Platform ter hoogte van Noord Holland)
Afstand tot weerstation: N 103 km
Update: 05-08-2020 20:55
Gedeeltelijk bewolkt
Gedeeltelijk bewolkt
 Wind van ZZO
Wind: ZZO 35 km/h
Temperatuur: 20°C
Dauwpunt: 13°C
Luchtvochtigheid: 64%
Luchtdruk: 1013 hPa
Bewolking: Gedeeltelijk bewolkt
Zicht: 10 km
2020/08/05 18:55 EHQE 051855Z AUTO 16019KT 9999 NSC 20/13 Q1013
 
EHKD - Marinebasis De Kooy (Den Helder)
Afstand tot weerstation: NNO 114 km
Update: 05-08-2020 21:18
Helder
Helder
 Wind van ZZW
Wind: ZZW 9 km/h
Temperatuur: 19°C
Dauwpunt: 13°C
Luchtvochtigheid: 68%
Luchtdruk: 1014 hPa
Bewolking: Helder
Zicht: 10 km
2020/08/05 19:18 EHKD 051918Z AUTO 20005KT 9999 NCD 19/13 Q1014 BLU
EHEH - Vliegveld Eindhoven
Afstand tot weerstation: OZO 115 km
Update: 05-08-2020 20:55
Zwaar bewolkt
Zwaar bewolkt
 Wind van Z
Wind: Z 9 km/h
Temperatuur: 25°C
Dauwpunt: 10°C
Luchtvochtigheid: 39%
Luchtdruk: 1015 hPa
Bewolking: Zwaar bewolkt
Zicht: 10 km
Details Bewolking: Zwaar bewolkt 8839 m
2020/08/05 18:55 EHEH 051855Z AUTO 18005KT 130V220 9999 OVC290 25/10 Q1015 BLU NOSIG
 
EHVK - Vliegveld Volkel
Afstand tot weerstation: OZO 124 km
Update: 05-08-2020 20:55
Zwaar bewolkt
Zwaar bewolkt
 Wind van Z
Wind: Z 6 km/h
Temperatuur: 25°C
Dauwpunt: 11°C
Luchtvochtigheid: 42%
Luchtdruk: 1015 hPa
Bewolking: Zwaar bewolkt
Zicht: 10 km
Details Bewolking: Overwegend bewolkt 6401 m
Zwaar bewolkt 7925 m
2020/08/05 18:55 EHVK 051855Z AUTO 17003KT 9999 BKN210 OVC260 25/11 Q1015 BLU
EHDL - Vliegveld Deelen
Afstand tot weerstation: O 128 km
Update: 05-08-2020 20:55
Enkele wolken
Enkele wolken
 Wind van Z
Wind: Z 6 km/h
Temperatuur: 25°C
Dauwpunt: 12°C
Luchtvochtigheid: 44%
Luchtdruk: 1015 hPa
Bewolking: Enkele wolken
Zicht: 10 km
Details Bewolking: Enkele wolken 8839 m
2020/08/05 18:55 EHDL 051855Z AUTO 19003KT 090V190 9999 FEW290 25/12 Q1015 BLU